sensor_id;sensor_type;location;lat;lon;timestamp;P1;durP1;ratioP1;P2;durP2;ratioP2
67160;SDS011;54088;52.238;21.104;2022-10-16T00:01:20;19.65;;;14.55;;
67160;SDS011;54088;52.238;21.104;2022-10-16T00:03:47;17.65;;;14.23;;
67160;SDS011;54088;52.238;21.104;2022-10-16T00:06:14;19.58;;;14.20;;
67160;SDS011;54088;52.238;21.104;2022-10-16T00:08:41;20.83;;;15.50;;
67160;SDS011;54088;52.238;21.104;2022-10-16T00:11:08;20.60;;;14.43;;
67160;SDS011;54088;52.238;21.104;2022-10-16T00:13:36;19.95;;;15.50;;
67160;SDS011;54088;52.238;21.104;2022-10-16T00:16:04;20.05;;;14.73;;
67160;SDS011;54088;52.238;21.104;2022-10-16T00:18:30;21.70;;;14.90;;
67160;SDS011;54088;52.238;21.104;2022-10-16T00:21:01;19.90;;;15.43;;
67160;SDS011;54088;52.238;21.104;2022-10-16T00:23:28;21.52;;;14.88;;
67160;SDS011;54088;52.238;21.104;2022-10-16T00:25:57;17.83;;;14.95;;
67160;SDS011;54088;52.238;21.104;2022-10-16T00:28:25;22.58;;;15.75;;
67160;SDS011;54088;52.238;21.104;2022-10-16T00:30:51;20.67;;;16.52;;
67160;SDS011;54088;52.238;21.104;2022-10-16T00:33:16;21.50;;;16.23;;
67160;SDS011;54088;52.238;21.104;2022-10-16T00:35:42;21.20;;;16.27;;
67160;SDS011;54088;52.238;21.104;2022-10-16T00:38:08;20.45;;;16.17;;
67160;SDS011;54088;52.238;21.104;2022-10-16T00:40:34;24.55;;;18.38;;
67160;SDS011;54088;52.238;21.104;2022-10-16T00:43:00;24.65;;;17.70;;
67160;SDS011;54088;52.238;21.104;2022-10-16T00:45:25;22.55;;;18.02;;
67160;SDS011;54088;52.238;21.104;2022-10-16T00:47:51;25.70;;;18.73;;
67160;SDS011;54088;52.238;21.104;2022-10-16T00:50:27;24.35;;;19.40;;
67160;SDS011;54088;52.238;21.104;2022-10-16T00:52:53;23.42;;;19.05;;
67160;SDS011;54088;52.238;21.104;2022-10-16T00:55:20;24.88;;;19.55;;
67160;SDS011;54088;52.238;21.104;2022-10-16T00:57:47;26.33;;;20.08;;
67160;SDS011;54088;52.238;21.104;2022-10-16T01:00:15;24.50;;;19.85;;
67160;SDS011;54088;52.238;21.104;2022-10-16T01:02:52;23.30;;;19.77;;
67160;SDS011;54088;52.238;21.104;2022-10-16T01:05:21;25.60;;;19.77;;
67160;SDS011;54088;52.238;21.104;2022-10-16T01:08:22;25.83;;;20.67;;
67160;SDS011;54088;52.238;21.104;2022-10-16T01:10:52;27.08;;;19.42;;
67160;SDS011;54088;52.238;21.104;2022-10-16T01:13:26;25.95;;;20.15;;
67160;SDS011;54088;52.238;21.104;2022-10-16T01:18:42;23.58;;;18.65;;
67160;SDS011;54088;52.238;21.104;2022-10-16T01:21:12;23.33;;;18.63;;
67160;SDS011;54088;52.238;21.104;2022-10-16T01:29:30;24.45;;;17.95;;
67160;SDS011;54088;52.238;21.104;2022-10-16T01:35:03;24.48;;;18.98;;
67160;SDS011;54088;52.238;21.104;2022-10-16T01:37:38;22.60;;;17.52;;
67160;SDS011;54088;52.238;21.104;2022-10-16T01:40:17;23.63;;;18.67;;
67160;SDS011;54088;52.238;21.104;2022-10-16T01:42:50;21.40;;;19.00;;
67160;SDS011;54088;52.238;21.104;2022-10-16T01:45:20;23.48;;;19.02;;
67160;SDS011;54088;52.238;21.104;2022-10-16T01:47:47;23.67;;;19.13;;
67160;SDS011;54088;52.238;21.104;2022-10-16T01:50:16;23.50;;;18.75;;
67160;SDS011;54088;52.238;21.104;2022-10-16T01:52:44;26.55;;;18.85;;
67160;SDS011;54088;52.238;21.104;2022-10-16T01:55:13;25.20;;;19.73;;
67160;SDS011;54088;52.238;21.104;2022-10-16T01:57:44;25.10;;;19.42;;
67160;SDS011;54088;52.238;21.104;2022-10-16T02:00:13;27.90;;;20.45;;
67160;SDS011;54088;52.238;21.104;2022-10-16T02:02:41;26.27;;;19.80;;
67160;SDS011;54088;52.238;21.104;2022-10-16T02:07:38;23.95;;;19.65;;
67160;SDS011;54088;52.238;21.104;2022-10-16T02:10:06;26.73;;;20.58;;
67160;SDS011;54088;52.238;21.104;2022-10-16T02:12:32;24.95;;;20.15;;
67160;SDS011;54088;52.238;21.104;2022-10-16T02:15:00;28.75;;;20.75;;
67160;SDS011;54088;52.238;21.104;2022-10-16T02:17:26;24.90;;;19.20;;
67160;SDS011;54088;52.238;21.104;2022-10-16T02:19:52;25.67;;;19.33;;
67160;SDS011;54088;52.238;21.104;2022-10-16T02:22:30;25.98;;;20.58;;
67160;SDS011;54088;52.238;21.104;2022-10-16T02:30:28;28.05;;;21.08;;
67160;SDS011;54088;52.238;21.104;2022-10-16T02:32:59;25.50;;;20.20;;
67160;SDS011;54088;52.238;21.104;2022-10-16T02:35:29;26.57;;;20.80;;
67160;SDS011;54088;52.238;21.104;2022-10-16T02:37:56;27.83;;;20.50;;
67160;SDS011;54088;52.238;21.104;2022-10-16T02:40:24;27.38;;;21.05;;
67160;SDS011;54088;52.238;21.104;2022-10-16T02:42:51;27.13;;;21.02;;
67160;SDS011;54088;52.238;21.104;2022-10-16T02:45:18;26.83;;;20.27;;
67160;SDS011;54088;52.238;21.104;2022-10-16T02:47:44;26.77;;;21.60;;
67160;SDS011;54088;52.238;21.104;2022-10-16T02:50:10;27.35;;;23.02;;
67160;SDS011;54088;52.238;21.104;2022-10-16T02:52:35;27.00;;;21.25;;
67160;SDS011;54088;52.238;21.104;2022-10-16T02:55:01;26.77;;;21.75;;
67160;SDS011;54088;52.238;21.104;2022-10-16T02:57:27;29.83;;;22.77;;
67160;SDS011;54088;52.238;21.104;2022-10-16T02:59:53;27.35;;;22.10;;
67160;SDS011;54088;52.238;21.104;2022-10-16T03:02:18;27.75;;;22.83;;
67160;SDS011;54088;52.238;21.104;2022-10-16T03:04:44;27.40;;;22.83;;
67160;SDS011;54088;52.238;21.104;2022-10-16T03:07:10;26.80;;;22.25;;
67160;SDS011;54088;52.238;21.104;2022-10-16T03:09:36;28.75;;;22.25;;
67160;SDS011;54088;52.238;21.104;2022-10-16T03:12:01;27.35;;;22.55;;
67160;SDS011;54088;52.238;21.104;2022-10-16T03:14:27;28.00;;;21.63;;
67160;SDS011;54088;52.238;21.104;2022-10-16T03:16:53;26.90;;;21.27;;
67160;SDS011;54088;52.238;21.104;2022-10-16T03:19:18;29.15;;;22.13;;
67160;SDS011;54088;52.238;21.104;2022-10-16T03:21:44;26.02;;;21.17;;
67160;SDS011;54088;52.238;21.104;2022-10-16T03:24:10;29.27;;;21.80;;
67160;SDS011;54088;52.238;21.104;2022-10-16T03:26:36;24.25;;;21.10;;
67160;SDS011;54088;52.238;21.104;2022-10-16T03:29:02;30.83;;;21.35;;
67160;SDS011;54088;52.238;21.104;2022-10-16T03:31:28;26.73;;;20.33;;
67160;SDS011;54088;52.238;21.104;2022-10-16T03:33:54;26.35;;;20.95;;
67160;SDS011;54088;52.238;21.104;2022-10-16T03:36:20;29.48;;;22.33;;
67160;SDS011;54088;52.238;21.104;2022-10-16T03:38:46;26.33;;;20.73;;
67160;SDS011;54088;52.238;21.104;2022-10-16T03:41:11;24.55;;;20.60;;
67160;SDS011;54088;52.238;21.104;2022-10-16T03:43:37;26.33;;;21.42;;
67160;SDS011;54088;52.238;21.104;2022-10-16T03:46:03;28.65;;;21.48;;
67160;SDS011;54088;52.238;21.104;2022-10-16T03:48:29;25.83;;;20.30;;
67160;SDS011;54088;52.238;21.104;2022-10-16T03:50:55;27.20;;;20.65;;
67160;SDS011;54088;52.238;21.104;2022-10-16T03:53:20;25.00;;;20.75;;
67160;SDS011;54088;52.238;21.104;2022-10-16T03:55:46;25.42;;;19.85;;
67160;SDS011;54088;52.238;21.104;2022-10-16T03:58:12;27.70;;;22.48;;
67160;SDS011;54088;52.238;21.104;2022-10-16T04:00:41;23.65;;;20.27;;
67160;SDS011;54088;52.238;21.104;2022-10-16T04:03:07;24.92;;;20.38;;
67160;SDS011;54088;52.238;21.104;2022-10-16T04:05:33;26.60;;;20.58;;
67160;SDS011;54088;52.238;21.104;2022-10-16T04:07:59;26.45;;;20.30;;
67160;SDS011;54088;52.238;21.104;2022-10-16T04:10:25;25.05;;;21.55;;
67160;SDS011;54088;52.238;21.104;2022-10-16T04:12:50;27.23;;;21.70;;
67160;SDS011;54088;52.238;21.104;2022-10-16T04:15:16;26.20;;;20.88;;
67160;SDS011;54088;52.238;21.104;2022-10-16T04:17:42;24.80;;;20.42;;
67160;SDS011;54088;52.238;21.104;2022-10-16T04:20:07;26.02;;;21.52;;
67160;SDS011;54088;52.238;21.104;2022-10-16T04:22:33;30.48;;;21.92;;
67160;SDS011;54088;52.238;21.104;2022-10-16T04:24:59;30.58;;;21.52;;
67160;SDS011;54088;52.238;21.104;2022-10-16T04:27:24;24.75;;;20.60;;
67160;SDS011;54088;52.238;21.104;2022-10-16T04:29:50;23.35;;;20.08;;
67160;SDS011;54088;52.238;21.104;2022-10-16T04:32:16;23.17;;;19.23;;
67160;SDS011;54088;52.238;21.104;2022-10-16T04:34:41;25.85;;;20.33;;
67160;SDS011;54088;52.238;21.104;2022-10-16T04:37:07;26.40;;;20.35;;
67160;SDS011;54088;52.238;21.104;2022-10-16T04:39:33;24.42;;;21.42;;
67160;SDS011;54088;52.238;21.104;2022-10-16T04:41:58;25.58;;;20.73;;
67160;SDS011;54088;52.238;21.104;2022-10-16T04:44:24;24.88;;;21.13;;
67160;SDS011;54088;52.238;21.104;2022-10-16T04:46:50;25.95;;;20.77;;
67160;SDS011;54088;52.238;21.104;2022-10-16T04:49:16;25.33;;;20.50;;
67160;SDS011;54088;52.238;21.104;2022-10-16T04:51:42;27.35;;;21.00;;
67160;SDS011;54088;52.238;21.104;2022-10-16T04:54:08;23.10;;;19.35;;
67160;SDS011;54088;52.238;21.104;2022-10-16T04:56:34;24.60;;;19.40;;
67160;SDS011;54088;52.238;21.104;2022-10-16T04:59:07;24.60;;;20.20;;
67160;SDS011;54088;52.238;21.104;2022-10-16T05:01:34;23.52;;;19.55;;
67160;SDS011;54088;52.238;21.104;2022-10-16T05:03:59;27.40;;;20.33;;
67160;SDS011;54088;52.238;21.104;2022-10-16T05:06:25;23.58;;;19.23;;
67160;SDS011;54088;52.238;21.104;2022-10-16T05:08:51;23.23;;;19.48;;
67160;SDS011;54088;52.238;21.104;2022-10-16T05:11:16;24.90;;;19.83;;
67160;SDS011;54088;52.238;21.104;2022-10-16T05:13:42;22.25;;;19.02;;
67160;SDS011;54088;52.238;21.104;2022-10-16T05:16:07;25.30;;;19.30;;
67160;SDS011;54088;52.238;21.104;2022-10-16T05:18:33;23.77;;;19.40;;
67160;SDS011;54088;52.238;21.104;2022-10-16T05:20:59;24.95;;;19.30;;
67160;SDS011;54088;52.238;21.104;2022-10-16T05:23:24;25.08;;;18.35;;
67160;SDS011;54088;52.238;21.104;2022-10-16T05:25:56;23.75;;;19.48;;
67160;SDS011;54088;52.238;21.104;2022-10-16T05:28:27;22.40;;;18.55;;
67160;SDS011;54088;52.238;21.104;2022-10-16T05:33:20;24.63;;;18.27;;
67160;SDS011;54088;52.238;21.104;2022-10-16T05:35:46;20.65;;;17.17;;
67160;SDS011;54088;52.238;21.104;2022-10-16T05:38:12;22.13;;;17.60;;
67160;SDS011;54088;52.238;21.104;2022-10-16T05:40:38;22.38;;;17.88;;
67160;SDS011;54088;52.238;21.104;2022-10-16T05:43:04;25.20;;;18.05;;
67160;SDS011;54088;52.238;21.104;2022-10-16T05:45:29;21.85;;;17.67;;
67160;SDS011;54088;52.238;21.104;2022-10-16T05:47:55;21.40;;;18.58;;
67160;SDS011;54088;52.238;21.104;2022-10-16T05:50:21;24.77;;;18.48;;
67160;SDS011;54088;52.238;21.104;2022-10-16T05:52:46;20.08;;;17.20;;
67160;SDS011;54088;52.238;21.104;2022-10-16T05:55:12;21.40;;;17.83;;
67160;SDS011;54088;52.238;21.104;2022-10-16T05:57:38;21.65;;;18.17;;
67160;SDS011;54088;52.238;21.104;2022-10-16T06:00:04;21.10;;;17.90;;
67160;SDS011;54088;52.238;21.104;2022-10-16T06:02:30;24.20;;;18.73;;
67160;SDS011;54088;52.238;21.104;2022-10-16T06:04:56;24.58;;;18.75;;
67160;SDS011;54088;52.238;21.104;2022-10-16T06:07:22;23.30;;;17.73;;
67160;SDS011;54088;52.238;21.104;2022-10-16T06:09:51;25.20;;;17.70;;
67160;SDS011;54088;52.238;21.104;2022-10-16T06:12:17;24.17;;;17.73;;
67160;SDS011;54088;52.238;21.104;2022-10-16T06:14:44;21.75;;;18.02;;
67160;SDS011;54088;52.238;21.104;2022-10-16T06:17:12;19.60;;;16.55;;
67160;SDS011;54088;52.238;21.104;2022-10-16T06:19:38;18.75;;;16.45;;
67160;SDS011;54088;52.238;21.104;2022-10-16T06:22:04;20.92;;;16.50;;
67160;SDS011;54088;52.238;21.104;2022-10-16T06:24:30;18.67;;;14.98;;
67160;SDS011;54088;52.238;21.104;2022-10-16T06:26:55;21.17;;;15.95;;
67160;SDS011;54088;52.238;21.104;2022-10-16T06:29:21;18.35;;;14.63;;
67160;SDS011;54088;52.238;21.104;2022-10-16T06:31:47;19.38;;;16.00;;
67160;SDS011;54088;52.238;21.104;2022-10-16T06:34:12;17.70;;;13.93;;
67160;SDS011;54088;52.238;21.104;2022-10-16T06:36:38;17.20;;;14.82;;
67160;SDS011;54088;52.238;21.104;2022-10-16T06:39:04;18.15;;;14.60;;
67160;SDS011;54088;52.238;21.104;2022-10-16T06:41:32;19.70;;;15.07;;
67160;SDS011;54088;52.238;21.104;2022-10-16T06:43:58;17.63;;;14.43;;
67160;SDS011;54088;52.238;21.104;2022-10-16T06:46:25;19.23;;;14.45;;
67160;SDS011;54088;52.238;21.104;2022-10-16T06:48:52;19.70;;;14.38;;
67160;SDS011;54088;52.238;21.104;2022-10-16T06:51:22;19.25;;;15.20;;
67160;SDS011;54088;52.238;21.104;2022-10-16T06:53:50;16.45;;;14.00;;
67160;SDS011;54088;52.238;21.104;2022-10-16T06:56:21;18.80;;;14.95;;
67160;SDS011;54088;52.238;21.104;2022-10-16T06:58:49;19.35;;;14.60;;
67160;SDS011;54088;52.238;21.104;2022-10-16T07:01:16;16.55;;;14.15;;
67160;SDS011;54088;52.238;21.104;2022-10-16T07:03:43;17.13;;;15.07;;
67160;SDS011;54088;52.238;21.104;2022-10-16T07:06:11;17.90;;;13.43;;
67160;SDS011;54088;52.238;21.104;2022-10-16T07:08:38;18.33;;;13.63;;
67160;SDS011;54088;52.238;21.104;2022-10-16T07:11:10;16.58;;;13.60;;
67160;SDS011;54088;52.238;21.104;2022-10-16T07:13:38;22.15;;;14.55;;
67160;SDS011;54088;52.238;21.104;2022-10-16T07:18:31;17.63;;;14.63;;
67160;SDS011;54088;52.238;21.104;2022-10-16T07:21:07;20.25;;;14.77;;
67160;SDS011;54088;52.238;21.104;2022-10-16T07:23:40;16.95;;;13.43;;
67160;SDS011;54088;52.238;21.104;2022-10-16T07:26:06;18.13;;;14.38;;
67160;SDS011;54088;52.238;21.104;2022-10-16T07:28:32;17.50;;;15.10;;
67160;SDS011;54088;52.238;21.104;2022-10-16T07:31:06;16.83;;;14.77;;
67160;SDS011;54088;52.238;21.104;2022-10-16T07:33:36;15.68;;;13.52;;
67160;SDS011;54088;52.238;21.104;2022-10-16T07:36:03;16.20;;;13.63;;
67160;SDS011;54088;52.238;21.104;2022-10-16T07:38:29;17.10;;;14.02;;
67160;SDS011;54088;52.238;21.104;2022-10-16T07:40:59;17.35;;;13.85;;
67160;SDS011;54088;52.238;21.104;2022-10-16T07:43:29;18.92;;;14.73;;
67160;SDS011;54088;52.238;21.104;2022-10-16T07:45:54;17.88;;;14.35;;
67160;SDS011;54088;52.238;21.104;2022-10-16T07:48:21;18.10;;;14.85;;
67160;SDS011;54088;52.238;21.104;2022-10-16T07:50:48;15.40;;;13.65;;
67160;SDS011;54088;52.238;21.104;2022-10-16T07:53:14;18.63;;;13.98;;
67160;SDS011;54088;52.238;21.104;2022-10-16T07:55:40;16.42;;;14.40;;
67160;SDS011;54088;52.238;21.104;2022-10-16T07:58:05;19.52;;;13.38;;
67160;SDS011;54088;52.238;21.104;2022-10-16T08:00:31;15.45;;;13.45;;
67160;SDS011;54088;52.238;21.104;2022-10-16T08:02:58;17.85;;;12.88;;
67160;SDS011;54088;52.238;21.104;2022-10-16T08:05:27;16.48;;;13.13;;
67160;SDS011;54088;52.238;21.104;2022-10-16T08:07:53;15.80;;;12.07;;
67160;SDS011;54088;52.238;21.104;2022-10-16T08:10:20;15.68;;;12.45;;
67160;SDS011;54088;52.238;21.104;2022-10-16T08:12:48;13.80;;;11.45;;
67160;SDS011;54088;52.238;21.104;2022-10-16T08:15:13;16.15;;;12.55;;
67160;SDS011;54088;52.238;21.104;2022-10-16T08:17:39;14.05;;;11.60;;
67160;SDS011;54088;52.238;21.104;2022-10-16T08:20:04;14.13;;;12.07;;
67160;SDS011;54088;52.238;21.104;2022-10-16T08:22:31;12.77;;;11.15;;
67160;SDS011;54088;52.238;21.104;2022-10-16T08:24:56;16.00;;;11.68;;
67160;SDS011;54088;52.238;21.104;2022-10-16T08:27:22;13.35;;;11.80;;
67160;SDS011;54088;52.238;21.104;2022-10-16T08:29:50;14.45;;;11.40;;
67160;SDS011;54088;52.238;21.104;2022-10-16T08:32:16;13.32;;;11.90;;
67160;SDS011;54088;52.238;21.104;2022-10-16T08:34:42;14.05;;;11.13;;
67160;SDS011;54088;52.238;21.104;2022-10-16T08:37:07;15.55;;;11.32;;
67160;SDS011;54088;52.238;21.104;2022-10-16T08:39:36;13.60;;;10.93;;
67160;SDS011;54088;52.238;21.104;2022-10-16T08:42:07;13.95;;;11.60;;
67160;SDS011;54088;52.238;21.104;2022-10-16T08:47:45;14.27;;;11.18;;
67160;SDS011;54088;52.238;21.104;2022-10-16T08:50:32;16.35;;;11.35;;
67160;SDS011;54088;52.238;21.104;2022-10-16T08:53:03;14.43;;;10.90;;
67160;SDS011;54088;52.238;21.104;2022-10-16T08:55:31;13.05;;;11.52;;
67160;SDS011;54088;52.238;21.104;2022-10-16T08:58:09;14.10;;;11.25;;
67160;SDS011;54088;52.238;21.104;2022-10-16T09:00:38;13.18;;;11.35;;
67160;SDS011;54088;52.238;21.104;2022-10-16T09:19:58;15.93;;;10.45;;
67160;SDS011;54088;52.238;21.104;2022-10-16T09:22:28;13.13;;;11.27;;
67160;SDS011;54088;52.238;21.104;2022-10-16T09:24:59;12.45;;;11.02;;
67160;SDS011;54088;52.238;21.104;2022-10-16T09:27:30;12.40;;;9.85;;
67160;SDS011;54088;52.238;21.104;2022-10-16T09:29:56;12.18;;;10.30;;
67160;SDS011;54088;52.238;21.104;2022-10-16T09:32:21;15.43;;;10.73;;
67160;SDS011;54088;52.238;21.104;2022-10-16T09:34:52;14.05;;;9.70;;
67160;SDS011;54088;52.238;21.104;2022-10-16T09:37:21;13.45;;;10.80;;
67160;SDS011;54088;52.238;21.104;2022-10-16T09:39:52;11.45;;;9.98;;
67160;SDS011;54088;52.238;21.104;2022-10-16T09:42:20;11.50;;;10.05;;
67160;SDS011;54088;52.238;21.104;2022-10-16T09:44:55;13.05;;;10.82;;
67160;SDS011;54088;52.238;21.104;2022-10-16T09:47:26;11.68;;;10.27;;
67160;SDS011;54088;52.238;21.104;2022-10-16T09:49:57;14.00;;;10.38;;
67160;SDS011;54088;52.238;21.104;2022-10-16T09:52:27;12.15;;;10.32;;
67160;SDS011;54088;52.238;21.104;2022-10-16T09:54:58;14.55;;;10.55;;
67160;SDS011;54088;52.238;21.104;2022-10-16T09:57:28;12.93;;;10.90;;
67160;SDS011;54088;52.238;21.104;2022-10-16T09:59:56;13.43;;;10.52;;
67160;SDS011;54088;52.238;21.104;2022-10-16T10:02:35;12.77;;;9.85;;
67160;SDS011;54088;52.238;21.104;2022-10-16T10:05:06;12.80;;;10.77;;
67160;SDS011;54088;52.238;21.104;2022-10-16T10:07:44;12.48;;;9.75;;
67160;SDS011;54088;52.238;21.104;2022-10-16T10:12:47;14.93;;;11.52;;
67160;SDS011;54088;52.238;21.104;2022-10-16T10:15:13;13.35;;;10.52;;
67160;SDS011;54088;52.238;21.104;2022-10-16T10:17:50;13.57;;;10.45;;
67160;SDS011;54088;52.238;21.104;2022-10-16T10:22:52;13.88;;;11.27;;
67160;SDS011;54088;52.238;21.104;2022-10-16T10:30:44;13.20;;;10.35;;
67160;SDS011;54088;52.238;21.104;2022-10-16T10:33:31;12.68;;;10.18;;
67160;SDS011;54088;52.238;21.104;2022-10-16T10:43:55;13.70;;;11.13;;
67160;SDS011;54088;52.238;21.104;2022-10-16T10:46:37;12.25;;;10.23;;
67160;SDS011;54088;52.238;21.104;2022-10-16T10:49:34;11.82;;;10.50;;
67160;SDS011;54088;52.238;21.104;2022-10-16T10:54:54;11.98;;;10.00;;
67160;SDS011;54088;52.238;21.104;2022-10-16T11:05:41;11.52;;;8.88;;
67160;SDS011;54088;52.238;21.104;2022-10-16T11:08:12;13.02;;;9.60;;
67160;SDS011;54088;52.238;21.104;2022-10-16T11:16:15;13.68;;;9.73;;
67160;SDS011;54088;52.238;21.104;2022-10-16T11:19:31;14.25;;;9.43;;
67160;SDS011;54088;52.238;21.104;2022-10-16T11:21:46;11.25;;;9.00;;
67160;SDS011;54088;52.238;21.104;2022-10-16T11:24:19;14.35;;;9.00;;
67160;SDS011;54088;52.238;21.104;2022-10-16T11:26:49;13.40;;;9.82;;
67160;SDS011;54088;52.238;21.104;2022-10-16T11:29:23;11.52;;;9.80;;
67160;SDS011;54088;52.238;21.104;2022-10-16T11:31:55;13.75;;;9.73;;
67160;SDS011;54088;52.238;21.104;2022-10-16T11:37:14;12.77;;;9.48;;
67160;SDS011;54088;52.238;21.104;2022-10-16T11:39:45;11.43;;;9.52;;
67160;SDS011;54088;52.238;21.104;2022-10-16T11:47:35;12.60;;;9.15;;
67160;SDS011;54088;52.238;21.104;2022-10-16T11:50:26;12.15;;;9.88;;
67160;SDS011;54088;52.238;21.104;2022-10-16T11:53:23;13.23;;;9.68;;
67160;SDS011;54088;52.238;21.104;2022-10-16T11:55:52;12.93;;;9.20;;
67160;SDS011;54088;52.238;21.104;2022-10-16T12:08:53;12.60;;;9.60;;
67160;SDS011;54088;52.238;21.104;2022-10-16T12:19:19;14.40;;;9.20;;
67160;SDS011;54088;52.238;21.104;2022-10-16T12:21:46;12.10;;;9.70;;
67160;SDS011;54088;52.238;21.104;2022-10-16T12:24:22;13.80;;;8.98;;
67160;SDS011;54088;52.238;21.104;2022-10-16T12:27:00;12.57;;;8.95;;
67160;SDS011;54088;52.238;21.104;2022-10-16T12:31:59;12.18;;;9.30;;
67160;SDS011;54088;52.238;21.104;2022-10-16T12:36:51;11.85;;;9.30;;
67160;SDS011;54088;52.238;21.104;2022-10-16T12:39:20;10.35;;;8.40;;
67160;SDS011;54088;52.238;21.104;2022-10-16T12:41:47;12.40;;;9.30;;
67160;SDS011;54088;52.238;21.104;2022-10-16T12:44:23;14.82;;;9.38;;
67160;SDS011;54088;52.238;21.104;2022-10-16T12:46:51;12.05;;;9.95;;
67160;SDS011;54088;52.238;21.104;2022-10-16T12:49:30;11.35;;;8.82;;
67160;SDS011;54088;52.238;21.104;2022-10-16T12:52:00;14.38;;;9.15;;
67160;SDS011;54088;52.238;21.104;2022-10-16T12:54:35;15.38;;;10.20;;
67160;SDS011;54088;52.238;21.104;2022-10-16T12:57:14;12.00;;;9.57;;
67160;SDS011;54088;52.238;21.104;2022-10-16T13:02:36;13.45;;;10.00;;
67160;SDS011;54088;52.238;21.104;2022-10-16T13:05:16;15.43;;;10.10;;
67160;SDS011;54088;52.238;21.104;2022-10-16T13:10:45;14.18;;;10.55;;
67160;SDS011;54088;52.238;21.104;2022-10-16T13:16:15;17.73;;;9.82;;
67160;SDS011;54088;52.238;21.104;2022-10-16T13:19:33;14.30;;;10.73;;
67160;SDS011;54088;52.238;21.104;2022-10-16T13:24:52;11.43;;;9.70;;
67160;SDS011;54088;52.238;21.104;2022-10-16T13:32:43;12.73;;;9.52;;
67160;SDS011;54088;52.238;21.104;2022-10-16T13:35:18;12.57;;;10.40;;
67160;SDS011;54088;52.238;21.104;2022-10-16T13:37:46;12.80;;;9.60;;
67160;SDS011;54088;52.238;21.104;2022-10-16T13:40:17;13.85;;;10.32;;
67160;SDS011;54088;52.238;21.104;2022-10-16T13:42:46;12.18;;;10.20;;
67160;SDS011;54088;52.238;21.104;2022-10-16T13:45:19;12.10;;;9.15;;
67160;SDS011;54088;52.238;21.104;2022-10-16T13:47:46;11.38;;;9.48;;
67160;SDS011;54088;52.238;21.104;2022-10-16T13:50:12;14.00;;;9.23;;
67160;SDS011;54088;52.238;21.104;2022-10-16T13:52:40;13.18;;;9.85;;
67160;SDS011;54088;52.238;21.104;2022-10-16T13:57:38;12.18;;;9.50;;
67160;SDS011;54088;52.238;21.104;2022-10-16T14:00:16;11.48;;;9.55;;
67160;SDS011;54088;52.238;21.104;2022-10-16T14:02:50;14.48;;;10.60;;
67160;SDS011;54088;52.238;21.104;2022-10-16T14:05:20;13.52;;;9.20;;
67160;SDS011;54088;52.238;21.104;2022-10-16T14:07:47;12.23;;;9.45;;
67160;SDS011;54088;52.238;21.104;2022-10-16T14:10:26;12.40;;;9.70;;
67160;SDS011;54088;52.238;21.104;2022-10-16T14:12:58;10.63;;;8.48;;
67160;SDS011;54088;52.238;21.104;2022-10-16T14:15:26;13.98;;;9.57;;
67160;SDS011;54088;52.238;21.104;2022-10-16T14:17:52;13.90;;;9.50;;
67160;SDS011;54088;52.238;21.104;2022-10-16T14:20:20;12.48;;;9.75;;
67160;SDS011;54088;52.238;21.104;2022-10-16T14:22:57;12.75;;;9.40;;
67160;SDS011;54088;52.238;21.104;2022-10-16T14:25:43;12.35;;;9.48;;
67160;SDS011;54088;52.238;21.104;2022-10-16T14:30:48;12.63;;;10.32;;
67160;SDS011;54088;52.238;21.104;2022-10-16T14:38:35;14.55;;;11.45;;
67160;SDS011;54088;52.238;21.104;2022-10-16T14:41:05;15.77;;;12.77;;
67160;SDS011;54088;52.238;21.104;2022-10-16T14:45:59;15.07;;;10.88;;
67160;SDS011;54088;52.238;21.104;2022-10-16T14:48:28;13.85;;;11.07;;
67160;SDS011;54088;52.238;21.104;2022-10-16T14:50:54;12.38;;;9.70;;
67160;SDS011;54088;52.238;21.104;2022-10-16T14:53:20;11.88;;;10.15;;
67160;SDS011;54088;52.238;21.104;2022-10-16T14:55:46;13.68;;;10.48;;
67160;SDS011;54088;52.238;21.104;2022-10-16T14:58:16;13.02;;;9.35;;
67160;SDS011;54088;52.238;21.104;2022-10-16T15:00:45;12.88;;;9.93;;
67160;SDS011;54088;52.238;21.104;2022-10-16T15:03:11;14.93;;;11.05;;
67160;SDS011;54088;52.238;21.104;2022-10-16T15:05:36;12.45;;;10.18;;
67160;SDS011;54088;52.238;21.104;2022-10-16T15:08:02;11.98;;;9.82;;
67160;SDS011;54088;52.238;21.104;2022-10-16T15:10:29;11.93;;;9.30;;
67160;SDS011;54088;52.238;21.104;2022-10-16T15:12:57;13.73;;;10.23;;
67160;SDS011;54088;52.238;21.104;2022-10-16T15:18:08;12.65;;;11.00;;
67160;SDS011;54088;52.238;21.104;2022-10-16T15:20:35;12.63;;;9.30;;
67160;SDS011;54088;52.238;21.104;2022-10-16T15:23:03;13.40;;;10.25;;
67160;SDS011;54088;52.238;21.104;2022-10-16T15:28:06;15.45;;;12.18;;
67160;SDS011;54088;52.238;21.104;2022-10-16T15:30:33;13.68;;;10.63;;
67160;SDS011;54088;52.238;21.104;2022-10-16T15:33:00;14.90;;;10.18;;
67160;SDS011;54088;52.238;21.104;2022-10-16T15:35:26;14.52;;;10.95;;
67160;SDS011;54088;52.238;21.104;2022-10-16T15:37:52;13.82;;;10.50;;
67160;SDS011;54088;52.238;21.104;2022-10-16T15:40:18;14.15;;;10.90;;
67160;SDS011;54088;52.238;21.104;2022-10-16T15:42:44;15.00;;;11.23;;
67160;SDS011;54088;52.238;21.104;2022-10-16T15:45:10;13.05;;;10.95;;
67160;SDS011;54088;52.238;21.104;2022-10-16T15:47:37;13.88;;;10.63;;
67160;SDS011;54088;52.238;21.104;2022-10-16T15:50:03;13.95;;;10.80;;
67160;SDS011;54088;52.238;21.104;2022-10-16T15:52:30;12.65;;;10.40;;
67160;SDS011;54088;52.238;21.104;2022-10-16T15:54:56;13.15;;;11.48;;
67160;SDS011;54088;52.238;21.104;2022-10-16T15:57:22;13.38;;;11.98;;
67160;SDS011;54088;52.238;21.104;2022-10-16T15:59:48;13.18;;;10.43;;
67160;SDS011;54088;52.238;21.104;2022-10-16T16:02:15;15.85;;;11.40;;
67160;SDS011;54088;52.238;21.104;2022-10-16T16:04:40;12.80;;;10.85;;
67160;SDS011;54088;52.238;21.104;2022-10-16T16:07:06;12.02;;;10.10;;
67160;SDS011;54088;52.238;21.104;2022-10-16T16:09:32;13.55;;;11.65;;
67160;SDS011;54088;52.238;21.104;2022-10-16T16:11:58;15.88;;;11.68;;
67160;SDS011;54088;52.238;21.104;2022-10-16T16:14:25;14.98;;;11.48;;
67160;SDS011;54088;52.238;21.104;2022-10-16T16:16:53;15.20;;;11.60;;
67160;SDS011;54088;52.238;21.104;2022-10-16T16:19:19;13.57;;;11.38;;
67160;SDS011;54088;52.238;21.104;2022-10-16T16:21:46;13.73;;;11.93;;
67160;SDS011;54088;52.238;21.104;2022-10-16T16:24:12;13.60;;;11.05;;
67160;SDS011;54088;52.238;21.104;2022-10-16T16:26:38;17.52;;;11.63;;
67160;SDS011;54088;52.238;21.104;2022-10-16T16:31:38;14.60;;;10.07;;
67160;SDS011;54088;52.238;21.104;2022-10-16T16:34:04;15.02;;;12.07;;
67160;SDS011;54088;52.238;21.104;2022-10-16T16:36:30;16.17;;;12.60;;
67160;SDS011;54088;52.238;21.104;2022-10-16T16:38:57;16.80;;;12.27;;
67160;SDS011;54088;52.238;21.104;2022-10-16T16:41:24;14.38;;;11.93;;
67160;SDS011;54088;52.238;21.104;2022-10-16T16:43:51;17.65;;;12.50;;
67160;SDS011;54088;52.238;21.104;2022-10-16T16:46:17;17.77;;;12.57;;
67160;SDS011;54088;52.238;21.104;2022-10-16T16:48:44;15.73;;;12.07;;